Time;durP1;ratioP1;P1;durP2;ratioP2;P2;SDS_P1;SDS_P2;PMS_P1;PMS_P2;Temp;Humidity;BMP_temperature;BMP_pressure;BME280_temperature;BME280_humidity;BME280_pressure;Samples;Min_cycle;Max_cycle;Signal;HPM_P1;HPM_P2
2021/05/25 00:00:58;;;;;;;34.78;21.90;;;;;;;13.12;87.33;99924.84;5075215;28;20502;-59
2021/05/25 00:03:24;;;;;;;30.35;20.05;;;;;;;13.10;87.23;99915.31;5074834;28;20012;-59
2021/05/25 00:05:50;;;;;;;22.98;16.40;;;;;;;13.03;86.05;99919.97;5093147;28;20046;-60
2021/05/25 00:08:16;;;;;;;20.73;15.30;;;;;;;12.94;86.09;99915.97;5074308;28;20164;-58
2021/05/25 00:10:41;;;;;;;24.00;15.68;;;;;;;12.96;85.94;99916.75;5092931;28;20541;-59
2021/05/25 00:13:08;;;;;;;26.20;16.60;;;;;;;12.96;86.51;99918.53;5074722;28;20110;-59
2021/05/25 00:15:34;;;;;;;27.38;16.50;;;;;;;12.96;86.93;99919.38;5092960;28;20039;-58
2021/05/25 00:18:01;;;;;;;35.38;21.60;;;;;;;12.99;87.62;99929.75;5074227;28;20169;-58
2021/05/25 00:20:27;;;;;;;40.22;25.10;;;;;;;13.02;88.11;99931.38;5074637;28;20031;-58
2021/05/25 00:22:53;;;;;;;36.45;23.45;;;;;;;13.03;87.79;99933.97;5092338;28;20028;-57
2021/05/25 00:25:20;;;;;;;38.08;24.00;;;;;;;13.07;87.78;99926.81;5092470;28;20043;-58
2021/05/25 00:27:47;;;;;;;37.30;24.10;;;;;;;13.04;87.68;99932.22;5092272;28;20501;-58
2021/05/25 00:30:15;;;;;;;32.67;21.60;;;;;;;13.13;87.22;99931.81;5092484;28;20026;-58
2021/05/25 00:32:43;;;;;;;36.85;23.88;;;;;;;13.05;87.02;99927.78;5073555;28;20051;-58
2021/05/25 00:35:10;;;;;;;36.00;24.45;;;;;;;12.99;87.84;99927.13;5093082;28;20089;-58
2021/05/25 00:37:36;;;;;;;38.80;25.13;;;;;;;12.97;88.03;99925.47;5092067;28;20056;-59
2021/05/25 00:40:03;;;;;;;39.25;24.48;;;;;;;12.95;88.01;99917.66;5092742;28;20027;-58
2021/05/25 00:42:29;;;;;;;45.78;26.20;;;;;;;12.93;88.20;99911.59;5091944;28;20440;-59
2021/05/25 00:44:55;;;;;;;41.50;26.60;;;;;;;12.94;87.98;99909.81;5092613;28;20107;-58
2021/05/25 00:47:31;;;;;;;43.42;26.23;;;;;;;12.91;88.25;99908.19;5091834;28;20024;-58
2021/05/25 00:50:10;;;;;;;41.97;26.73;;;;;;;12.87;88.07;99911.00;5092439;28;20032;-58
2021/05/25 00:52:44;;;;;;;33.83;23.40;;;;;;;12.83;87.60;99916.38;5093102;28;20077;-59
2021/05/25 00:55:36;;;;;;;35.70;22.48;;;;;;;12.80;87.84;99907.78;5092538;28;20491;-59
2021/05/25 00:58:04;;;;;;;37.55;24.63;;;;;;;12.87;87.75;99903.13;5069116;28;20024;-59
2021/05/25 01:00:48;;;;;;;43.67;25.98;;;;;;;12.94;87.75;99896.69;5074514;28;20028;-59
2021/05/25 01:03:17;;;;;;;40.47;25.20;;;;;;;12.95;87.35;99901.88;5074043;28;20032;-59
2021/05/25 01:05:43;;;;;;;44.63;28.17;;;;;;;12.84;87.94;99896.19;5092590;28;20464;-59
2021/05/25 01:08:11;;;;;;;49.38;29.75;;;;;;;12.77;88.47;99898.22;5092247;28;20020;-58
2021/05/25 01:10:50;;;;;;;45.08;28.00;;;;;;;12.73;88.45;99899.28;5091931;28;20031;-57
2021/05/25 01:13:20;;;;;;;41.83;27.90;;;;;;;12.75;88.04;99904.47;5074276;28;20034;-58
2021/05/25 01:15:46;;;;;;;42.08;26.10;;;;;;;12.70;88.60;99894.16;5092055;28;20027;-58
2021/05/25 01:18:12;;;;;;;46.63;28.60;;;;;;;12.63;88.60;99893.53;5073902;28;20036;-58
2021/05/25 01:20:39;;;;;;;50.75;29.73;;;;;;;12.60;88.72;99892.81;5092036;28;20084;-59
2021/05/25 01:23:08;;;;;;;41.85;26.27;;;;;;;12.60;88.84;99898.06;5091817;28;20059;-58
2021/05/25 01:25:36;;;;;;;40.17;24.65;;;;;;;12.54;88.26;99895.69;5073763;28;20108;-58
2021/05/25 01:28:04;;;;;;;38.33;23.80;;;;;;;12.53;88.13;99904.47;5073490;28;20433;-58
2021/05/25 01:30:34;;;;;;;40.63;24.67;;;;;;;12.49;88.29;99903.72;5092348;28;20429;-58
2021/05/25 01:33:00;;;;;;;44.75;28.30;;;;;;;12.51;88.66;99895.78;5091590;28;20031;-58
2021/05/25 01:35:27;;;;;;;52.42;29.65;;;;;;;12.61;88.68;99907.63;5073899;28;20431;-58
2021/05/25 01:37:54;;;;;;;46.25;28.30;;;;;;;12.65;88.30;99904.00;5091732;28;20028;-59
2021/05/25 01:40:20;;;;;;;40.40;26.30;;;;;;;12.75;87.42;99915.84;5092130;28;20016;-58
2021/05/25 01:42:47;;;;;;;48.33;29.48;;;;;;;12.62;88.37;99910.22;5092812;28;20032;-58
2021/05/25 01:45:17;;;;;;;45.45;27.02;;;;;;;12.61;88.64;99908.50;5095558;28;20043;-59
2021/05/25 01:47:42;;;;;;;48.10;28.10;;;;;;;12.60;88.69;99908.56;5095076;28;20028;-58
2021/05/25 01:50:13;;;;;;;48.67;28.33;;;;;;;12.53;88.65;99905.34;5095240;28;20016;-58
2021/05/25 01:52:49;;;;;;;52.30;29.98;;;;;;;12.47;88.84;99898.53;5095568;28;20036;-58
2021/05/25 01:55:46;;;;;;;47.30;28.40;;;;;;;12.43;89.25;99899.59;5077626;28;20395;-58
2021/05/25 01:58:16;;;;;;;52.00;28.13;;;;;;;12.39;89.29;99897.97;5095557;28;20471;-58
2021/05/25 02:00:48;;;;;;;36.83;22.60;;;;;;;12.32;88.03;99896.53;5095506;28;20044;-58
2021/05/25 02:03:14;;;;;;;41.95;24.77;;;;;;;12.30;88.22;99893.06;5077353;28;20024;-58
2021/05/25 02:05:40;;;;;;;35.85;21.85;;;;;;;12.27;88.36;99898.44;5095234;28;20506;-58
2021/05/25 02:08:08;;;;;;;46.50;26.88;;;;;;;12.29;88.64;99896.63;5095305;28;20029;-58
2021/05/25 02:10:37;;;;;;;31.65;19.90;;;;;;;12.19;87.47;99897.88;5094951;28;20391;-59
2021/05/25 02:13:26;;;;;;;30.98;20.58;;;;;;;12.20;88.74;99896.97;5095602;28;20026;-58
2021/05/25 02:15:54;;;;;;;35.97;21.33;;;;;;;12.16;88.47;99893.63;5094782;28;20368;-58
2021/05/25 02:18:23;;;;;;;40.10;23.00;;;;;;;12.15;88.75;99893.66;5095115;28;20119;-58
2021/05/25 02:20:51;;;;;;;52.85;28.48;;;;;;;12.16;89.47;99879.63;5094698;28;20028;-58
2021/05/25 02:23:16;;;;;;;48.83;25.95;;;;;;;12.14;89.60;99882.31;5095422;28;20024;-58
2021/05/25 02:25:43;;;;;;;52.05;29.42;;;;;;;12.14;89.50;99886.69;5076447;28;20373;-58
2021/05/25 02:28:10;;;;;;;46.88;26.05;;;;;;;12.13;89.49;99887.63;5076702;28;20024;-58
2021/05/25 02:30:37;;;;;;;37.00;22.63;;;;;;;12.08;88.63;99893.06;5094934;28;20024;-58
2021/05/25 02:33:06;;;;;;;32.13;20.80;;;;;;;12.03;88.47;99882.72;5076861;28;20476;-58
2021/05/25 02:35:33;;;;;;;45.15;25.10;;;;;;;12.02;88.80;99883.63;5076235;28;20030;-58
2021/05/25 02:37:59;;;;;;;27.45;18.10;;;;;;;11.94;87.44;99879.59;5077307;28;20033;-58
2021/05/25 02:40:25;;;;;;;22.17;15.18;;;;;;;11.83;86.40;99882.56;5087994;28;20050;-58
2021/05/25 02:42:52;;;;;;;49.67;26.20;;;;;;;11.91;88.83;99875.25;5094917;28;20055;-58
2021/05/25 02:45:18;;;;;;;40.13;21.30;;;;;;;11.90;89.24;99877.03;5094828;28;20027;-58
2021/05/25 02:47:45;;;;;;;28.15;17.98;;;;;;;11.83;87.70;99880.81;5094383;28;20024;-58
2021/05/25 02:50:12;;;;;;;37.17;23.00;;;;;;;11.83;88.69;99879.94;5094577;28;20028;-58
2021/05/25 02:52:40;;;;;;;39.30;21.88;;;;;;;11.84;88.61;99879.03;5094722;28;20555;-58
2021/05/25 02:55:08;;;;;;;25.05;15.88;;;;;;;11.80;87.88;99886.16;5075090;28;20040;-58
2021/05/25 02:57:34;;;;;;;45.33;26.48;;;;;;;11.83;88.83;99880.81;5076236;28;20032;-58
2021/05/25 03:00:00;;;;;;;40.80;23.27;;;;;;;11.79;88.90;99880.97;5094534;28;20043;-58
2021/05/25 03:02:27;;;;;;;41.80;24.70;;;;;;;11.78;89.18;99876.63;5093906;28;20031;-58
2021/05/25 03:04:53;;;;;;;42.65;23.88;;;;;;;11.76;89.19;99873.22;5094533;28;20022;-58
2021/05/25 03:07:19;;;;;;;40.85;23.65;;;;;;;11.73;89.31;99877.66;5059183;28;20024;-57
2021/05/25 03:09:44;;;;;;;50.38;25.95;;;;;;;11.85;89.46;99875.50;5094240;28;20074;-58
2021/05/25 03:12:10;;;;;;;51.88;27.10;;;;;;;11.83;89.56;99866.81;5094173;28;20503;-58
2021/05/25 03:14:36;;;;;;;48.30;27.05;;;;;;;11.90;89.46;99878.81;5094216;28;20027;-58
2021/05/25 03:17:02;;;;;;;48.88;26.30;;;;;;;11.87;89.68;99877.16;5093910;28;20399;-57
2021/05/25 03:19:27;;;;;;;41.63;24.77;;;;;;;11.88;89.49;99885.88;5075913;28;20206;-59
2021/05/25 03:21:53;;;;;;;46.42;26.52;;;;;;;11.82;89.29;99875.63;5075406;28;20115;-59
2021/05/25 03:24:21;;;;;;;51.00;26.27;;;;;;;11.78;89.52;99869.59;5094209;28;20020;-59
2021/05/25 03:26:46;;;;;;;45.38;24.48;;;;;;;11.80;89.15;99870.44;5053141;28;20464;-58
2021/05/25 03:29:12;;;;;;;42.50;23.73;;;;;;;11.87;88.81;99864.03;5053185;28;20025;-58
2021/05/25 03:31:38;;;;;;;46.20;23.23;;;;;;;11.86;89.35;99869.34;5052898;28;20025;-57
2021/05/25 03:34:04;;;;;;;41.22;23.65;;;;;;;11.83;89.18;99861.56;5052958;28;20028;-58
2021/05/25 03:36:30;;;;;;;43.35;24.48;;;;;;;11.90;88.37;99863.06;5053288;28;20028;-58
2021/05/25 03:38:56;;;;;;;40.75;22.77;;;;;;;11.85;88.96;99859.75;5053325;28;20070;-58
2021/05/25 03:41:22;;;;;;;39.50;23.20;;;;;;;11.80;88.81;99861.69;5048612;28;20026;-58
2021/05/25 03:43:47;;;;;;;38.78;22.58;;;;;;;11.84;88.59;99864.13;5033510;28;20025;-58
2021/05/25 03:46:13;;;;;;;40.28;24.23;;;;;;;11.77;88.77;99872.31;5054610;28;20041;-59
2021/05/25 03:48:39;;;;;;;45.65;24.77;;;;;;;11.73;89.31;99867.19;5048359;28;20048;-58
2021/05/25 03:51:05;;;;;;;44.67;25.30;;;;;;;11.71;89.21;99863.72;5037645;28;20017;-59
2021/05/25 03:53:31;;;;;;;43.13;23.58;;;;;;;11.71;89.28;99868.97;5051965;28;20021;-58
2021/05/25 03:56:25;;;;;;;40.25;21.52;;;;;;;11.77;89.05;99872.31;5052877;28;20066;-57
2021/05/25 04:01:13;;;;;;;37.45;20.88;;;;;;;11.79;88.27;99876.56;5052860;28;20028;-58
2021/05/25 04:03:38;;;;;;;26.50;16.88;;;;;;;11.68;87.17;99868.25;5068459;28;20017;-58
2021/05/25 04:06:04;;;;;;;35.17;20.63;;;;;;;11.67;87.93;99871.78;5052872;28;20020;-59
2021/05/25 04:08:30;;;;;;;35.35;22.50;;;;;;;11.67;88.47;99866.53;5052702;28;20041;-59
2021/05/25 04:10:55;;;;;;;29.20;17.83;;;;;;;11.62;87.61;99869.34;5067955;28;20033;-58
2021/05/25 04:13:21;;;;;;;31.45;19.55;;;;;;;11.61;87.67;99882.50;5052933;28;20014;-58
2021/05/25 04:15:51;;;;;;;27.27;16.60;;;;;;;11.53;87.11;99880.13;5049684;28;20485;-57
2021/05/25 04:18:16;;;;;;;35.10;21.98;;;;;;;11.58;88.56;99883.44;5052530;28;20029;-58
2021/05/25 04:20:42;;;;;;;31.35;19.10;;;;;;;11.56;87.89;99885.28;5047691;28;20120;-58
2021/05/25 04:23:08;;;;;;;32.38;20.92;;;;;;;11.59;88.30;99890.41;5032893;28;20048;-58
2021/05/25 04:25:34;;;;;;;31.88;20.52;;;;;;;11.63;88.54;99889.38;5052626;28;20049;-59
2021/05/25 04:28:00;;;;;;;35.38;21.20;;;;;;;11.77;87.82;99888.91;5071180;28;20082;-58
2021/05/25 04:30:26;;;;;;;36.53;20.13;;;;;;;11.76;87.64;99888.97;5072190;28;20051;-59
2021/05/25 04:32:52;;;;;;;37.03;23.20;;;;;;;11.71;88.07;99895.22;5072791;28;20044;-59
2021/05/25 04:35:19;;;;;;;37.22;20.83;;;;;;;11.69;88.36;99901.44;5072177;28;20020;-59
2021/05/25 04:37:45;;;;;;;31.83;19.75;;;;;;;11.74;88.03;99912.63;5072355;28;20032;-59
2021/05/25 04:40:12;;;;;;;34.67;18.63;;;;;;;11.77;88.06;99896.78;5072101;28;20020;-59
2021/05/25 04:42:38;;;;;;;32.95;21.02;;;;;;;11.80;87.67;99903.66;5072002;28;20027;-59
2021/05/25 04:45:06;;;;;;;33.38;20.25;;;;;;;11.80;87.60;99908.91;5054250;28;20047;-59
2021/05/25 04:47:31;;;;;;;36.28;20.58;;;;;;;11.84;87.97;99905.28;5071363;28;20031;-59
2021/05/25 04:49:57;;;;;;;34.50;21.25;;;;;;;11.84;87.90;99905.28;5071159;28;20024;-59
2021/05/25 04:52:23;;;;;;;34.67;19.98;;;;;;;11.79;87.63;99912.47;5072317;28;20055;-59
2021/05/25 04:54:48;;;;;;;33.08;20.13;;;;;;;11.83;87.20;99914.91;5072257;28;20020;-58
2021/05/25 04:57:14;;;;;;;32.60;20.10;;;;;;;11.82;87.08;99918.44;5072429;28;20090;-59
2021/05/25 04:59:40;;;;;;;32.85;19.42;;;;;;;11.82;86.84;99914.97;5071900;28;20024;-59
2021/05/25 05:02:05;;;;;;;35.55;20.88;;;;;;;11.83;87.41;99916.66;5071864;28;20024;-59
2021/05/25 05:04:31;;;;;;;28.98;17.90;;;;;;;11.85;87.53;99914.88;5071808;28;20035;-59
2021/05/25 05:06:57;;;;;;;33.65;21.25;;;;;;;11.87;87.13;99915.66;5072179;28;20086;-59
2021/05/25 05:09:22;;;;;;;33.88;18.40;;;;;;;11.93;87.36;99928.59;5072054;28;20020;-59
2021/05/25 05:11:48;;;;;;;34.60;19.17;;;;;;;11.94;87.01;99925.03;5072265;28;20028;-59
2021/05/25 05:14:14;;;;;;;33.72;19.05;;;;;;;11.95;87.15;99921.50;5070790;28;20507;-59
2021/05/25 05:16:40;;;;;;;31.92;18.63;;;;;;;12.01;86.96;99918.69;5071914;28;20024;-58
2021/05/25 05:19:05;;;;;;;29.23;18.08;;;;;;;12.05;86.22;99922.03;5075000;28;20329;-57
2021/05/25 05:21:31;;;;;;;27.67;18.50;;;;;;;12.04;86.60;99915.94;5076128;28;20043;-57
2021/05/25 05:23:57;;;;;;;31.98;19.27;;;;;;;12.05;86.81;99922.88;5074731;28;20482;-59
2021/05/25 05:26:23;;;;;;;26.98;17.88;;;;;;;12.13;86.63;99921.75;5091749;28;20499;-59
2021/05/25 05:28:48;;;;;;;36.00;18.55;;;;;;;12.14;87.07;99929.59;5095879;28;20107;-58
2021/05/25 05:31:14;;;;;;;30.33;19.40;;;;;;;12.15;86.85;99923.41;5096140;28;20056;-59
2021/05/25 05:33:40;;;;;;;30.85;18.45;;;;;;;12.18;86.66;99925.06;5096060;28;20020;-59
2021/05/25 05:36:06;;;;;;;28.58;16.65;;;;;;;12.26;85.96;99923.84;5096329;28;20020;-59
2021/05/25 05:38:32;;;;;;;25.30;15.60;;;;;;;12.37;85.40;99931.31;5095775;28;20062;-58
2021/05/25 05:41:04;;;;;;;23.27;15.32;;;;;;;12.39;85.34;99939.16;5095971;28;20031;-58
2021/05/25 05:43:32;;;;;;;23.38;16.15;;;;;;;12.45;84.98;99942.41;5095719;28;20039;-58
2021/05/25 05:45:59;;;;;;;25.75;17.30;;;;;;;12.49;85.52;99944.91;5077682;28;20032;-58
2021/05/25 05:48:27;;;;;;;25.98;15.68;;;;;;;12.51;85.16;99940.44;5077386;28;20035;-58
2021/05/25 05:50:53;;;;;;;22.50;15.10;;;;;;;12.56;84.55;99941.13;5077784;28;20024;-59
2021/05/25 05:53:20;;;;;;;24.35;15.77;;;;;;;12.63;84.79;99947.88;5063072;28;20119;-58
2021/05/25 05:55:46;;;;;;;24.35;16.27;;;;;;;12.63;84.68;99947.88;5075484;28;20079;-58
2021/05/25 05:58:12;;;;;;;24.38;16.15;;;;;;;12.67;85.02;99951.22;5070298;28;20053;-58
2021/05/25 06:00:41;;;;;;;26.83;16.73;;;;;;;12.71;85.04;99960.69;5095369;28;20035;-58
2021/05/25 06:03:07;;;;;;;24.38;15.65;;;;;;;12.80;85.29;99953.28;5096021;28;20020;-59
2021/05/25 06:05:35;;;;;;;25.13;15.00;;;;;;;13.00;84.01;99956.91;5095486;28;20107;-58
2021/05/25 06:08:01;;;;;;;24.65;15.43;;;;;;;13.07;83.41;99957.50;5095293;28;20032;-59
2021/05/25 06:10:29;;;;;;;22.55;14.88;;;;;;;13.00;83.49;99952.50;5077562;28;20024;-59
2021/05/25 06:12:55;;;;;;;23.70;16.08;;;;;;;13.03;83.58;99959.41;5078256;28;20069;-59
2021/05/25 06:15:21;;;;;;;22.23;14.77;;;;;;;13.13;83.82;99959.88;5095955;28;20050;-59
2021/05/25 06:17:47;;;;;;;22.63;14.02;;;;;;;13.20;83.81;99959.56;5095883;28;20336;-59
2021/05/25 06:20:13;;;;;;;20.60;15.23;;;;;;;13.23;82.88;99957.72;5077783;28;20027;-58
2021/05/25 06:22:39;;;;;;;20.17;13.55;;;;;;;13.36;82.90;99959.84;5095534;28;20032;-59
2021/05/25 06:25:06;;;;;;;22.33;14.35;;;;;;;13.48;82.58;99962.88;5095264;28;20044;-59
2021/05/25 06:27:32;;;;;;;21.17;13.88;;;;;;;13.52;82.05;99962.66;5095337;28;20078;-61
2021/05/25 06:29:58;;;;;;;20.13;13.90;;;;;;;13.58;81.94;99964.19;5093358;28;20048;-58
2021/05/25 06:32:23;;;;;;;21.40;14.40;;;;;;;13.64;81.93;99966.56;5076892;28;20383;-58
2021/05/25 06:34:51;;;;;;;18.83;13.73;;;;;;;13.68;81.75;99960.22;5094834;28;20052;-58
2021/05/25 06:37:17;;;;;;;16.92;12.68;;;;;;;13.93;81.13;99960.03;5094548;28;20111;-58
2021/05/25 06:39:43;;;;;;;19.67;13.07;;;;;;;13.87;80.52;99965.56;5076451;28;20059;-58
2021/05/25 06:42:11;;;;;;;18.95;13.05;;;;;;;13.90;79.40;99965.44;5094768;28;20065;-59
2021/05/25 06:44:36;;;;;;;18.35;13.02;;;;;;;13.94;80.09;99972.25;5094546;28;20028;-59
2021/05/25 06:47:02;;;;;;;16.88;12.27;;;;;;;14.08;78.64;99973.41;5094599;28;20026;-58
2021/05/25 06:49:28;;;;;;;17.83;12.48;;;;;;;14.15;79.23;99966.13;5076235;28;20081;-58
2021/05/25 06:51:53;;;;;;;17.33;13.40;;;;;;;14.11;79.56;99973.28;5094334;28;20047;-58
2021/05/25 06:54:19;;;;;;;21.42;13.93;;;;;;;14.12;79.69;99964.47;5064119;28;20034;-58
2021/05/25 06:56:45;;;;;;;19.55;13.48;;;;;;;14.29;79.25;99972.47;5081906;28;20074;-58
2021/05/25 06:59:11;;;;;;;17.45;12.82;;;;;;;14.34;78.63;99968.75;5069614;28;20039;-58
2021/05/25 07:01:37;;;;;;;13.98;10.85;;;;;;;14.43;77.18;99969.19;5081832;28;20036;-58
2021/05/25 07:04:03;;;;;;;14.32;11.35;;;;;;;14.55;77.37;99969.53;5074132;28;20393;-57
2021/05/25 07:06:28;;;;;;;14.02;10.70;;;;;;;14.57;75.40;99967.69;5081445;28;20028;-58
2021/05/25 07:08:54;;;;;;;13.00;10.05;;;;;;;14.81;75.20;99974.50;5082639;28;20040;-59
2021/05/25 07:11:20;;;;;;;13.50;9.25;;;;;;;14.88;74.33;99972.41;5082034;28;20028;-59
2021/05/25 07:13:47;;;;;;;13.40;9.52;;;;;;;14.89;74.31;99979.38;5074109;28;20032;-59
2021/05/25 07:16:13;;;;;;;10.43;7.68;;;;;;;15.14;74.00;99980.81;5062821;28;20408;-58
2021/05/25 07:18:39;;;;;;;10.48;8.07;;;;;;;15.24;72.94;99987.38;5081030;28;20534;-57
2021/05/25 07:21:05;;;;;;;11.70;7.97;;;;;;;15.34;73.45;99985.13;5061591;28;20118;-59
2021/05/25 07:23:31;;;;;;;9.02;7.28;;;;;;;15.45;71.97;99990.75;5074518;28;20101;-59
2021/05/25 07:25:56;;;;;;;9.48;7.88;;;;;;;15.60;71.00;99998.81;5074303;28;20046;-59
2021/05/25 07:28:22;;;;;;;9.52;6.95;;;;;;;15.72;70.46;99998.19;5081643;28;20051;-58
2021/05/25 07:30:48;;;;;;;9.45;8.00;;;;;;;15.80;69.85;99992.56;5083272;28;20059;-59
2021/05/25 07:33:14;;;;;;;10.88;7.38;;;;;;;15.80;70.58;100001.31;5088998;28;20431;-58
2021/05/25 07:35:40;;;;;;;11.38;9.35;;;;;;;15.92;69.78;99995.41;5074349;28;20043;-59
2021/05/25 07:38:06;;;;;;;11.15;8.63;;;;;;;15.99;68.69;99995.06;5092920;28;20032;-56
2021/05/25 07:40:33;;;;;;;11.77;9.55;;;;;;;15.91;69.47;100003.41;5074390;28;20124;-58
2021/05/25 07:43:00;;;;;;;12.20;9.23;;;;;;;16.04;69.44;100001.00;5092821;28;20069;-58
2021/05/25 07:45:26;;;;;;;11.20;9.43;;;;;;;16.24;68.39;99994.66;5084895;28;20020;-58
2021/05/25 07:47:52;;;;;;;12.63;9.15;;;;;;;16.49;67.97;100002.97;5073558;28;20031;-58
2021/05/25 07:50:18;;;;;;;13.48;10.10;;;;;;;16.41;66.50;99994.59;5074391;28;20016;-58
2021/05/25 07:52:57;;;;;;;12.50;9.10;;;;;;;16.55;66.49;99998.28;5092957;28;20028;-57
2021/05/25 07:55:26;;;;;;;13.15;8.85;;;;;;;16.44;66.56;99989.16;5070046;28;20063;-57
2021/05/25 07:57:53;;;;;;;12.55;9.48;;;;;;;16.44;67.24;100005.03;5090561;28;20031;-58
2021/05/25 08:00:20;;;;;;;11.10;8.35;;;;;;;16.55;66.06;99993.00;5075038;28;20028;-58
2021/05/25 08:02:46;;;;;;;11.93;8.50;;;;;;;16.61;66.04;100003.25;5092874;28;20111;-57
2021/05/25 08:05:14;;;;;;;9.93;7.63;;;;;;;16.64;65.51;100001.28;5092548;28;20028;-57
2021/05/25 08:07:40;;;;;;;12.23;9.15;;;;;;;16.65;63.42;99995.03;5092381;28;20028;-58
2021/05/25 08:10:07;;;;;;;10.88;7.97;;;;;;;16.66;64.13;99993.25;5091048;28;20016;-58
2021/05/25 08:12:33;;;;;;;12.82;9.15;;;;;;;16.77;63.45;99995.28;5092690;28;20024;-59
2021/05/25 08:15:00;;;;;;;14.65;9.10;;;;;;;16.62;63.29;99999.66;5073894;28;20020;-57
2021/05/25 08:20:12;;;;;;;13.30;8.90;;;;;;;16.71;63.54;100014.16;5092837;28;20028;-58
2021/05/25 08:22:38;;;;;;;11.50;8.55;;;;;;;16.83;63.59;100032.88;5091933;28;20395;-58
2021/05/25 08:25:04;;;;;;;11.20;9.05;;;;;;;16.74;62.25;100019.28;5092245;28;20036;-59
2021/05/25 08:27:30;;;;;;;11.30;8.57;;;;;;;16.81;62.81;100016.19;5092174;28;20036;-59
2021/05/25 08:29:55;;;;;;;11.43;8.60;;;;;;;16.93;61.79;100027.06;5074801;28;20024;-58
2021/05/25 08:32:22;;;;;;;14.30;7.70;;;;;;;17.05;61.58;100023.75;5091629;28;20097;-58
2021/05/25 08:34:48;;;;;;;13.18;8.90;;;;;;;17.16;62.18;100026.66;5091583;28;20031;-57
2021/05/25 08:37:15;;;;;;;10.77;8.35;;;;;;;17.23;60.06;100035.09;5073830;28;20111;-57
2021/05/25 08:39:40;;;;;;;13.25;9.52;;;;;;;17.26;61.51;100026.09;5092191;28;20056;-57
2021/05/25 08:42:06;;;;;;;11.88;8.68;;;;;;;17.35;62.12;100031.72;5091449;28;20059;-57
2021/05/25 08:44:32;;;;;;;12.10;9.10;;;;;;;17.35;60.69;100036.19;5073605;28;20028;-56
2021/05/25 08:46:57;;;;;;;11.43;9.15;;;;;;;17.27;60.22;100028.66;5091786;28;20020;-57
2021/05/25 08:49:23;;;;;;;13.55;9.35;;;;;;;17.38;60.64;100036.00;5091730;28;20380;-58
2021/05/25 08:51:49;;;;;;;11.20;8.82;;;;;;;17.49;60.76;100032.75;5091308;28;20027;-57
2021/05/25 08:54:14;;;;;;;9.00;7.53;;;;;;;17.47;56.69;100034.63;5091689;28;20048;-58
2021/05/25 08:56:40;;;;;;;10.82;6.80;;;;;;;17.67;59.10;100031.66;5091839;28;20120;-59
2021/05/25 08:59:05;;;;;;;10.75;7.93;;;;;;;17.78;58.52;100039.00;5091569;28;20024;-58
2021/05/25 09:01:31;;;;;;;10.23;7.15;;;;;;;17.89;58.31;100036.59;5073468;28;20071;-58
2021/05/25 09:04:06;;;;;;;9.73;8.00;;;;;;;17.98;58.21;100026.41;5069082;28;20495;-57
2021/05/25 09:06:43;;;;;;;9.15;7.80;;;;;;;18.08;57.37;100024.88;5092200;28;20483;-57
2021/05/25 09:09:12;;;;;;;9.38;6.88;;;;;;;18.05;54.40;100039.16;5084300;28;20029;-58
2021/05/25 09:12:01;;;;;;;7.05;5.88;;;;;;;18.04;52.75;100033.94;5075182;28;20502;-58
2021/05/25 09:14:28;;;;;;;10.07;6.47;;;;;;;18.20;55.95;100039.19;5091140;28;20063;-58
2021/05/25 09:17:24;;;;;;;10.63;7.95;;;;;;;18.14;56.25;100035.13;5091095;28;20482;-58
2021/05/25 09:19:52;;;;;;;8.98;7.57;;;;;;;18.27;55.94;100040.53;5091610;28;20433;-58
2021/05/25 09:22:26;;;;;;;14.75;7.97;;;;;;;18.08;54.72;100035.50;5089920;28;20082;-58
2021/05/25 09:24:53;;;;;;;10.15;7.47;;;;;;;18.34;55.75;100035.69;5060791;28;20164;-58
2021/05/25 09:27:37;;;;;;;10.43;7.10;;;;;;;18.35;55.44;100042.69;5091765;28;20061;-57
2021/05/25 09:30:11;;;;;;;10.65;7.40;;;;;;;18.37;55.81;100030.22;5091782;28;20028;-58
2021/05/25 09:32:51;;;;;;;12.63;7.20;;;;;;;18.65;55.59;100035.50;5091391;28;20016;-57
2021/05/25 09:35:20;;;;;;;10.00;5.90;;;;;;;18.56;52.12;100046.69;5072831;28;20023;-57
2021/05/25 09:37:48;;;;;;;9.02;7.25;;;;;;;18.65;53.62;100046.09;5091258;28;20127;-57
2021/05/25 09:40:17;;;;;;;8.43;6.38;;;;;;;18.87;52.61;100039.47;5090788;28;20098;-58
2021/05/25 09:42:44;;;;;;;9.68;6.15;;;;;;;18.87;52.55;100044.75;5087875;28;20055;-58
2021/05/25 09:45:13;;;;;;;4.85;3.85;;;;;;;18.92;46.52;100044.47;5062984;28;20039;-58
2021/05/25 09:47:45;;;;;;;6.22;4.13;;;;;;;18.86;46.70;100048.38;5088504;28;20062;-58
2021/05/25 09:50:16;;;;;;;3.90;3.17;;;;;;;19.00;45.07;100051.03;5091466;28;20028;-58
2021/05/25 09:53:03;;;;;;;7.55;3.35;;;;;;;19.15;47.14;100048.31;5090982;28;20031;-59
2021/05/25 09:55:30;;;;;;;5.22;2.85;;;;;;;19.33;47.00;100057.75;5090999;28;20024;-58
2021/05/25 09:57:57;;;;;;;6.47;3.88;;;;;;;19.25;45.66;100044.13;5091814;28;20020;-58
2021/05/25 10:00:23;;;;;;;6.63;4.72;;;;;;;19.29;49.31;100056.22;5073389;28;20114;-58
2021/05/25 10:03:12;;;;;;;5.65;3.78;;;;;;;19.28;47.33;100065.16;5091067;28;20027;-57
2021/05/25 10:05:38;;;;;;;5.10;3.45;;;;;;;19.24;45.69;100058.34;5094587;28;20387;-57
2021/05/25 10:08:05;;;;;;;4.43;3.63;;;;;;;19.46;46.56;100051.63;5076722;28;20020;-58
2021/05/25 10:10:34;;;;;;;4.70;2.97;;;;;;;19.67;45.28;100063.50;5076505;28;20024;-58
2021/05/25 10:13:00;;;;;;;4.25;2.90;;;;;;;19.71;42.48;100051.69;5075575;28;20035;-58
2021/05/25 10:15:28;;;;;;;3.10;2.35;;;;;;;19.87;41.36;100048.06;5094163;28;20016;-58
2021/05/25 10:18:08;;;;;;;6.20;3.00;;;;;;;19.98;43.21;100058.81;5094295;28;20431;-58
